Latest Coastal Weather Observations for Avalon

IDV60701

Issued at 5:31 pm EDT Wednesday 28 January 2015 (issued every 10 minutes, with the page automatically refreshed every 10 minutes)

About coastal observations | Map of coastal stations | Coastal observations for VIC | Marine services | Other Formats
Station Details ID: 087113 Name: AVALON AIRPORT Lat: -38.03 Lon: 144.48 Height: 10.6 m
Data from the previous 72 hours. | See also: Recent months at Avalon
Date/Time
EDT
Temp

°C
Wind Pressure Rain
since 9am
mm
Weather Cloud Vis
km
Sea
Height
m
Swell
Dir
 
Speed
knots
Gust
knots
hPa Trend Height
m
Period
s
Dir
28/05:30pm 21.7 SSE 23 29 1018.6 - 0.0 - - 10 - - - -
28/05:00pm 22.3 SSE 23 29 1018.3 - 0.0 - - 10 - - - -
28/04:30pm 22.7 SSE 23 28 1018.3 - 0.0 - - 10 - - - -
28/04:00pm 23.2 SSE 22 30 1018.4 - 0.0 - - 10 - - - -
28/03:30pm 22.9 SSE 23 29 1018.5 - 0.0 - - 10 - - - -
28/03:00pm 23.3 SSE 22 27 1018.5 - 0.0 - - 10 - - - -
28/02:30pm 23.6 SE 20 25 1018.5 - 0.0 - - 10 - - - -
28/02:00pm 23.5 SSE 19 24 1018.6 - 0.0 - Partly cloudy 10 - - - -
28/01:30pm 23.0 SE 17 22 1018.7 - 0.0 - Partly cloudy 10 - - - -
28/01:00pm 22.4 SE 15 19 1018.9 - 0.0 - Partly cloudy 10 - - - -
28/12:30pm 22.3 SE 18 21 1018.7 - 0.0 - - 10 - - - -
28/12:00pm 21.4 SE 17 21 1018.9 - 0.0 - Mostly cloudy 10 - - - -
28/11:30am 20.8 SE 15 20 1019.1 - 0.0 - Partly cloudy 10 - - - -
28/11:00am 20.8 SE 13 17 1019.2 - 0.0 - Partly cloudy 10 - - - -
28/10:30am 19.1 SE 13 18 1019.2 - 0.0 - Partly cloudy 10 - - - -
28/10:00am 18.9 SE 15 18 1019.2 - 0.0 - - 10 - - - -
28/09:30am 18.1 ESE 16 19 1019.2 - 0.0 - Partly cloudy 10 - - - -
28/09:00am 17.5 SE 16 19 1019.1 - 0.0 - - 10 - - - -
28/08:30am 17.5 ESE 15 21 1018.7 - 0.0 - Partly cloudy 10 - - - -
28/08:00am 17.0 SE 11 14 1018.2 - 0.0 - - 10 - - - -
28/07:30am 16.0 SE 9 11 1017.9 - 0.0 - Partly cloudy 10 - - - -
28/07:00am 13.8 SSE 8 9 1017.7 - 0.0 - Partly cloudy 10 - - - -
28/06:30am 12.6 SSE 8 9 1017.5 - 0.0 - Partly cloudy 10 - - - -
28/06:00am 12.4 S 8 9 1017.3 - 0.0 - Mostly clear 10 - - - -
28/05:30am 13.3 S 8 9 1017.0 - 0.0 - Partly cloudy 10 - - - -
28/05:00am 14.0 S 7 8 1017.1 - 0.0 - Partly cloudy 10 - - - -
28/04:30am 11.8 SSE 7 8 1017.0 - 0.0 - - 10 - - - -
28/04:00am 12.9 S 8 9 1017.0 - 0.0 - - 10 - - - -
28/03:30am 13.2 SSE 9 12 1017.1 - 0.0 - - 10 - - - -
28/03:00am 13.7 S 10 11 1017.3 - 0.0 - - 10 - - - -
28/02:30am 13.7 S 9 12 1017.5 - 0.0 - - 10 - - - -
28/02:00am 13.9 S 9 11 1017.7 - 0.0 - - 10 - - - -
28/01:30am 14.4 SSE 12 15 1018.0 - 0.0 - Partly cloudy 10 - - - -
28/01:00am 14.3 SSE 9 12 1018.4 - 0.0 - Partly cloudy 10 - - - -
28/12:30am 14.0 SSE 10 13 1018.5 - 0.0 - - 10 - - - -
28/12:00am 14.2 SSE 10 14 1018.5 - 0.0 - - 10 - - - -
 
Date/Time
EDT
Temp

°C
Wind Pressure Rain
since 9am
mm
Weather Cloud Vis
km
Sea
Height
m
Swell
Dir
 
Speed
knots
Gust
knots
hPa Trend Height
m
Period
s
Dir
27/11:30pm 14.4 S 11 14 1018.6 - 0.0 - Partly cloudy 10 - - - -
27/11:00pm 14.7 SSE 12 16 1018.7 - 0.0 - Partly cloudy 10 - - - -
27/10:30pm 14.9 S 13 18 1018.7 - 0.0 - - 10 - - - -
27/10:00pm 14.7 S 12 16 1018.6 - 0.0 - - 10 - - - -
27/09:30pm 14.7 S 12 17 1018.4 - 0.0 - - 10 - - - -
27/09:00pm 15.1 S 15 18 1018.3 - 0.0 - - 10 - - - -
27/08:30pm 15.6 S 13 19 1018.2 - 0.0 - Partly cloudy 10 - - - -
27/08:00pm 16.2 SSE 15 19 1017.9 - 0.0 - Partly cloudy 10 - - - -
27/07:30pm 17.4 SSE 15 19 1017.8 - 0.0 - Partly cloudy 10 - - - -
27/07:00pm 18.0 S 16 21 1017.4 - 0.0 - Partly cloudy 10 - - - -
27/06:30pm 18.5 S 17 21 1017.2 - 0.0 - Partly cloudy 10 - - - -
27/06:00pm 19.0 SSE 16 22 1017.2 - 0.0 - Cloudy 10 - - - -
27/05:30pm 18.6 SSE 18 22 1017.1 - 0.0 - Partly cloudy 10 - - - -
27/05:00pm 19.3 S 18 23 1017.3 - 0.0 - Partly cloudy 10 - - - -
27/04:30pm 18.3 SSE 17 23 1017.3 - 0.0 - Partly cloudy 10 - - - -
27/04:00pm 19.3 SSE 17 23 1017.3 - 0.0 - Partly cloudy 10 - - - -
27/03:30pm 19.1 S 18 23 1017.4 - 0.0 - Partly cloudy 10 - - - -
27/03:00pm 20.7 S 17 26 1017.4 - 0.0 - Mostly cloudy 10 - - - -
27/02:30pm 19.1 SSE 17 21 1017.4 - 0.0 - Partly cloudy 10 - - - -
27/02:00pm 19.9 S 18 23 1017.4 - 0.0 - Partly cloudy 10 - - - -
27/01:30pm 20.1 S 17 23 1017.5 - 0.0 - Partly cloudy 10 - - - -
27/01:00pm 19.3 S 16 23 1017.6 - 0.0 - Partly cloudy 10 - - - -
27/12:30pm 19.6 S 15 21 1017.7 - 0.0 - Partly cloudy 10 - - - -
27/12:00pm 17.8 S 16 22 1017.9 - 0.0 - Mostly cloudy 10 - - - -
27/11:30am 19.7 S 15 20 1018.1 - 0.0 - Partly cloudy 10 - - - -
27/11:00am 19.0 SSE 15 20 1017.9 - 0.0 - Partly cloudy 10 - - - -
27/10:30am 18.7 S 15 22 1017.9 - 0.0 - Partly cloudy 10 - - - -
27/10:00am 18.1 SSE 15 18 1017.8 - 0.0 - - 10 - - - -
27/09:30am 18.0 SSE 13 18 1017.9 - 0.0 - Partly cloudy 10 - - - -
27/09:00am 17.3 SSE 14 17 1017.7 - 0.0 - - 10 - - - -
27/08:30am 16.5 SSE 14 18 1017.4 - 0.0 - - 10 - - - -
27/08:00am 15.9 SSE 13 16 1017.2 - 0.0 - - 10 - - - -
27/07:30am 14.8 S 11 14 1017.0 - 0.0 - - 10 - - - -
27/07:00am 13.0 SSE 8 11 1016.9 - 0.0 - - 10 - - - -
27/06:30am 11.7 SSE 8 9 1016.8 - 0.0 - - 10 - - - -
27/06:00am 11.3 SSE 6 8 1016.7 - 0.0 - - 10 - - - -
27/05:30am 12.0 SSE 8 9 1016.7 - 0.0 - - 10 - - - -
27/05:00am 12.1 SSE 9 11 1016.6 - 0.0 - - 10 - - - -
27/04:30am 11.5 SSE 7 9 1016.6 - 0.0 - - 10 - - - -
27/04:00am 11.2 SSE 8 9 1016.7 - 0.0 - - 10 - - - -
27/03:30am 11.3 SSE 7 9 1016.8 - 0.0 - - 10 - - - -
27/03:00am 12.0 SSE 7 9 1016.9 - 0.0 - - 10 - - - -
27/02:30am 12.6 SSE 8 11 1017.0 - 0.0 - Partly cloudy 10 - - - -
27/02:00am 13.2 SSE 9 11 1017.3 - 0.0 - Partly cloudy 10 - - - -
27/01:30am 13.4 SSE 9 12 1017.6 - 0.0 - Partly cloudy 10 - - - -
27/01:00am 13.2 SSE 9 11 1017.7 - 0.0 - Partly cloudy 10 - - - -
27/12:30am 13.3 SSE 8 10 1017.9 - 0.0 - Partly cloudy 10 - - - -
27/12:00am 13.0 SSE 8 10 1018.0 - 0.0 - Mostly clear 10 - - - -
 
Date/Time
EDT
Temp

°C
Wind Pressure Rain
since 9am
mm
Weather Cloud Vis
km
Sea
Height
m
Swell
Dir
 
Speed
knots
Gust
knots
hPa Trend Height
m
Period
s
Dir
26/11:30pm 13.0 SSE 8 10 1018.1 - 0.0 - Partly cloudy 10 - - - -
26/11:00pm 12.4 SSE 7 9 1018.2 - 0.0 - - 10 - - - -
26/10:30pm 12.5 SSE 7 8 1018.3 - 0.0 - - 10 - - - -
26/10:00pm 13.4 SSE 8 10 1018.2 - 0.0 - - 10 - - - -
26/09:30pm 14.0 SSE 8 11 1017.9 - 0.0 - Partly cloudy 10 - - - -
26/09:00pm 14.3 SSE 9 12 1017.8 - 0.0 - Mostly clear 10 - - - -
26/08:30pm 15.2 S 12 15 1017.6 - 0.0 - Partly cloudy 10 - - - -
26/08:00pm 16.2 S 14 17 1017.3 - 0.0 - - 10 - - - -
26/07:30pm 16.8 S 15 19 1017.0 - 0.0 - - 10 - - - -
26/07:00pm 17.4 S 15 21 1016.6 - 0.0 - - 10 - - - -
26/06:30pm 17.9 S 17 21 1016.5 - 0.0 - Partly cloudy 10 - - - -
26/06:00pm 18.9 S 16 21 1016.5 - 0.0 - - 10 - - - -
26/05:30pm 18.8 S 17 23 1016.5 - 0.0 - - 10 - - - -
26/05:00pm 18.9 S 17 23 1016.5 - 0.0 - - 10 - - - -
26/04:30pm 19.1 S 17 23 1016.5 - 0.0 - - 10 - - - -
26/04:00pm 19.8 S 16 22 1016.6 - 0.0 - - 10 - - - -
26/03:30pm 19.7 S 16 23 1016.6 - 0.0 - Partly cloudy 10 - - - -
26/03:00pm 19.3 SSE 16 23 1016.5 - 0.0 - Mostly cloudy 10 - - - -
26/02:30pm 21.0 S 16 23 1016.5 - 0.0 - Partly cloudy 10 - - - -
26/02:00pm 19.3 S 15 22 1016.6 - 0.0 - Partly cloudy 10 - - - -
26/01:30pm 20.1 S 13 18 1016.8 - 0.0 - Partly cloudy 10 - - - -
26/01:00pm 19.8 S 13 20 1016.9 - 0.0 - Partly cloudy 10 - - - -
26/12:30pm 18.9 S 15 21 1017.1 - 0.0 - Partly cloudy 10 - - - -
26/12:00pm 18.3 S 11 15 1017.1 - 0.0 - Mostly cloudy 10 - - - -
26/11:30am 17.5 S 13 17 1017.2 - 0.0 - Partly cloudy 10 - - - -
26/11:00am 17.3 SSW 12 16 1017.3 - 0.0 - Partly cloudy 10 - - - -
26/10:30am 17.4 SSW 11 17 1017.2 - 0.0 - - 10 - - - -
26/10:00am 17.7 WSW 9 18 1017.0 - 0.0 - Partly cloudy 10 - - - -
26/09:30am 16.1 W 10 13 1017.1 - 0.0 - - 10 - - - -
26/09:00am 14.7 W 12 15 1016.9 - 0.0 - - 10 - - - -
26/08:30am 12.6 W 12 16 1016.7 - 0.0 - Partly cloudy 10 - - - -
26/08:00am 12.2 W 10 11 1016.6 - 0.0 - Cloudy 10 - - - -
26/07:30am 9.9 WNW 6 8 1016.3 - 0.0 - Partly cloudy 10 - - - -
26/07:00am 8.5 NW 7 8 1015.7 - 0.0 - - 10 - - - -
26/06:30am 7.1 NW 3 5 1015.6 - 0.0 - - 10 - - - -
26/06:00am 8.1 WNW 5 7 1015.2 - 0.0 - - 10 - - - -
26/05:30am 8.9 W 6 7 1014.7 - 0.0 - - 10 - - - -
26/05:00am 8.8 WNW 8 9 1014.6 - 0.0 - - 10 - - - -
26/04:30am 9.2 WNW 8 9 1014.5 - 0.0 - - 10 - - - -
26/04:00am 8.3 NW 6 7 1014.3 - 0.0 - - 10 - - - -
26/03:30am 8.0 NNW 6 7 1014.3 - 0.0 - - 10 - - - -
26/03:00am 8.3 NNW 7 9 1014.1 - 0.0 - - 10 - - - -
26/02:30am 9.0 NW 3 6 1014.0 - 0.0 - - 10 - - - -
26/02:00am 9.1 W 6 6 1013.9 - 0.0 - - 10 - - - -
26/01:30am 10.4 W 7 8 1013.8 - 0.0 - - 10 - - - -
26/01:00am 10.8 W 5 6 1014.0 - 0.0 - - 10 - - - -
26/12:30am 10.4 W 6 7 1013.9 - 0.0 - - 10 - - - -
26/12:00am 11.6 W 5 7 1013.9 - 0.0 - - 10 - - - -
 
Date/Time
EDT
Temp

°C
Wind Pressure Rain
since 9am
mm
Weather Cloud Vis
km
Sea
Height
m
Swell
Dir
 
Speed
knots
Gust
knots
hPa Trend Height
m
Period
s
Dir
25/11:30pm 11.3 W 6 7 1013.8 - 0.0 - - 10 - - - -
25/11:00pm 12.6 W 5 7 1013.7 - 0.0 - Partly cloudy 10 - - - -
25/10:30pm 13.5 WNW 8 9 1013.7 - 0.0 - Partly cloudy 10 - - - -
25/10:00pm 12.9 W 7 8 1013.5 - 0.0 - - 10 - - - -
25/09:30pm 14.8 W 9 13 1013.1 - 0.0 - Partly cloudy 10 - - - -
25/09:00pm 15.2 W 10 17 1012.7 - 0.0 - Partly cloudy 10 - - - -
25/08:30pm 16.0 WSW 13 19 1012.3 - 0.0 - Partly cloudy 10 - - - -
25/08:00pm 16.8 W 15 19 1011.9 - 0.0 - - 10 - - - -
25/07:30pm 17.8 SW 17 21 1011.3 - 0.0 - Partly cloudy 10 - - - -
25/07:00pm 18.1 WSW 15 22 1011.1 - 0.0 - Partly cloudy 10 - - - -
25/06:30pm 18.2 WSW 16 25 1010.6 - 0.0 - Partly cloudy 10 - - - -
25/06:00pm 18.6 SW 14 23 1010.3 - 0.0 - Mostly cloudy 10 - - - -

Other Formats:

Comma delimited format used in spreadsheet applications
http://www.bom.gov.au/fwo/IDV60701/IDV60701.94854.axf

JavaScript Object Notation format (JSON) in row-major order
http://www.bom.gov.au/fwo/IDV60701/IDV60701.94854.json